Flight Track Log - Related Links

Times and Time Zones

All times are in EDT time to prevent confusion due to time zone crossing. See the N675MC flight status page for this flight to view local times or setup timezone preferences in your user account.

Time Position Orientation Groundspeed Altitude Reporting Facility
EDT Latitude Longitude Course Direction KTS MPH feet Rate Location/Type
Sun 05:41:40 PM 33.6500 -84.3667 349° North 200 230 2,200  Level Atlanta TRACON
Sun 05:42:40 PM 33.6833 -84.3000 59° Northeast 270 311 4,200 1,983 Climbing Atlanta TRACON
Sun 05:43:41 PM 33.7667 -84.2667 18° North 279 321 6,200 2,182 Climbing Atlanta TRACON
Sun 05:44:00 PM 34.0719 -84.5904 349° North  Level Estimated
Sun 05:44:41 PM 33.8333 -84.2833 348° North 283 326 8,600  Level Atlanta TRACON
Sun 05:45:00 PM 34.1853 -84.6040 354° North  Level FlightAware
Sun 05:46:00 PM 34.2940 -84.6453 342° North  Level Estimated
Sun 05:46:57 PM 33.9942 -84.3919 331° Northwest 306 352 11,900  Level Atlanta Center
Sun 05:47:00 PM 34.4026 -84.6867 349° North  Level Estimated
Sun 05:47:57 PM 34.0775 -84.4628 325° Northwest 345 397 13,000  Level Atlanta Center
Sun 05:48:57 PM 34.1647 -84.5358 325° Northwest 376 433 14,800 1,750 Climbing Atlanta Center
Sun 05:49:57 PM 34.2542 -84.6092 326° Northwest 384 442 16,500 1,550 Climbing Atlanta Center
Sun 05:50:57 PM 34.3519 -84.6906 326° Northwest 390 449 17,900 1,350 Climbing Atlanta Center
Sun 05:51:57 PM 34.4433 -84.7667 326° Northwest 401 461 19,200 1,450 Climbing Atlanta Center
Sun 05:52:57 PM 34.5494 -84.8281 335° Northwest 401 461 20,800 1,350 Climbing Atlanta Center
Sun 05:53:57 PM 34.6575 -84.8772 339° North 406 467 21,900 1,250 Climbing Atlanta Center
Sun 05:54:57 PM 34.7575 -84.9061 347° North 411 473 23,300 1,150 Climbing Atlanta Center
Sun 05:55:57 PM 34.8761 -84.9400 347° North 416 479 24,200 950 Climbing Atlanta Center
Sun 05:56:57 PM 34.9928 -84.9769 345° North 429 494 25,200 1,000 Climbing Atlanta Center
Sun 05:57:57 PM 35.1114 -85.0111 347° North 434 499 26,200 1,150 Climbing Atlanta Center
Sun 05:58:57 PM 35.2322 -85.0431 348° North 434 499 27,500 900 Climbing Atlanta Center
Sun 05:59:57 PM 35.3508 -85.0753 348° North 434 499 28,000 250 Climbing Atlanta Center
Sun 06:00:57 PM 35.4800 -85.0972 352° North 440 506 28,000  Level Atlanta Center
Sun 06:01:57 PM 35.6050 -85.1217 351° North 451 519 28,000  Level Atlanta Center
Sun 06:03:47 PM 35.8461 -85.1633 352° North 469 540 28,000  Level Indianapolis Center
Sun 06:04:49 PM 35.9794 -85.1825 353° North 473 544 28,000  Level Indianapolis Center
Sun 06:05:51 PM 36.1119 -85.2036 353° North 474 545 28,000  Level Indianapolis Center
Sun 06:06:53 PM 36.2433 -85.2308 351° North 478 550 28,000 194 Level Indianapolis Center
Sun 06:07:55 PM 36.3719 -85.2678 347° North 473 544 28,400 726 Climbing Indianapolis Center
Sun 06:08:57 PM 36.5231 -85.3164 346° North 467 537 29,500 1,065 Climbing Indianapolis Center
Sun 06:09:59 PM 36.6464 -85.3572 345° North 461 531 30,600 726 Climbing Indianapolis Center
Sun 06:11:01 PM 36.7708 -85.3808 351° North 452 520 31,000 194 Climbing Indianapolis Center
Sun 06:12:03 PM 36.9011 -85.3856 358° North 466 536 31,000 242 Level Indianapolis Center
Sun 06:13:05 PM 37.0456 -85.3925 358° North 463 533 31,500 532 Climbing Indianapolis Center
Sun 06:14:07 PM 37.1725 -85.4053 355° North 458 527 32,100 240 Climbing Indianapolis Center
Sun 06:15:10 PM 37.3000 -85.4267 352° North 461 531 32,000 -48 Descending Indianapolis Center
Sun 06:16:12 PM 37.4297 -85.4483 352° North 466 536 32,000  Level Indianapolis Center
Sun 06:17:14 PM 37.5569 -85.4733 351° North 464 534 32,000  Level Indianapolis Center
Sun 06:18:16 PM 37.7025 -85.4981 352° North 454 522 32,000  Level Indianapolis Center
Sun 06:19:18 PM 37.8286 -85.5192 352° North 452 520 32,000  Level Indianapolis Center
Sun 06:20:20 PM 37.9536 -85.5500 349° North 456 525 32,000  Level Indianapolis Center
Sun 06:21:22 PM 38.0706 -85.5906 345° North 441 507 32,000  Level Indianapolis Center
Sun 06:22:24 PM 38.1931 -85.6192 350° North 444 511 32,000  Level Indianapolis Center
Sun 06:23:26 PM 38.3183 -85.6239 358° North 449 517 32,000  Level Indianapolis Center
Sun 06:24:28 PM 38.4458 -85.6067 North 457 526 32,000  Level Indianapolis Center
Sun 06:25:30 PM 38.6003 -85.5917 North 463 533 32,000  Level Indianapolis Center
Sun 06:26:32 PM 38.7103 -85.6050 355° North 457 526 32,000  Level Indianapolis Center
Sun 06:27:34 PM 38.8581 -85.6386 350° North 454 522 32,000 -97 Level Indianapolis Center
Sun 06:28:36 PM 38.9828 -85.6622 352° North 455 524 31,800 -435 Descending Indianapolis Center
Sun 06:29:38 PM 39.1092 -85.6867 351° North 458 527 31,100 -774 Descending Indianapolis Center
Sun 06:30:40 PM 39.2353 -85.7100 352° North 459 528 30,200 -532 Descending Indianapolis Center
Sun 06:31:42 PM 39.3628 -85.7286 354° North 462 532 30,000 -97 Descending Indianapolis Center
Sun 06:32:44 PM 39.5186 -85.7289 360° North 471 542 30,000  Level Indianapolis Center
Sun 06:33:46 PM 39.6475 -85.7303 360° North 469 540 30,000 -645 Level Indianapolis Center
Sun 06:35:50 PM 39.9072 -85.7389 359° North 474 545 28,000 -1,000 Descending Chicago Center
Sun 06:36:52 PM 40.0367 -85.7408 359° North 471 542 26,900 -1,200 Descending Indianapolis Center
Sun 06:37:55 PM 40.1939 -85.7111 North 479 551 25,500 -1,200 Descending Indianapolis Center
Sun 06:38:57 PM 40.3233 -85.6853 North 476 548 24,400 -726 Descending Indianapolis Center
Sun 06:39:59 PM 40.4478 -85.6692 North 456 525 24,000 -194 Descending Indianapolis Center
Sun 06:41:01 PM 40.5642 -85.7047 347° North 440 506 24,000 -242 Level Chicago Center
Sun 06:42:03 PM 40.6853 -85.7531 343° North 436 502 23,500 -823 Descending Chicago Center
Sun 06:43:05 PM 40.7953 -85.8097 339° North 427 491 22,300 -1,306 Descending Chicago Center
Sun 06:44:07 PM 40.9319 -85.8642 343° North 426 490 20,800 -2,129 Descending Chicago Center
Sun 06:45:09 PM 40.9956 -85.9778 307° West 390 449 17,900 -2,304 Descending Chicago Center
Sun 06:46:12 PM 41.0411 -86.0944 297° West 362 417 16,000 -912 Descending Chicago Center
Sun 06:47:14 PM 41.0878 -86.2061 299° West 349 402 16,000  Level Chicago Center
Sun 06:48:16 PM 41.1450 -86.3139 305° West 355 409 16,000  Level Chicago Center
Sun 06:49:18 PM 41.2061 -86.4219 307° West 363 418 16,000 -435 Level Chicago Center
Sun 06:50:20 PM 41.2594 -86.5269 304° West 345 397 15,100 -1,887 Descending Chicago Center
Sun 06:51:22 PM 41.3222 -86.6492 304° West 336 387 12,100 -1,500 Descending Chicago Center
Sun 06:52:24 PM 41.4156 -86.6878 343° North 362 417 12,000 -48 Descending Chicago Center
Sun 06:53:26 PM 41.5142 -86.7089 351° North 358 412 12,000  Level Chicago Center
Sun 06:54:28 PM 41.6197 -86.7392 348° North 351 404 12,000  Level Chicago Center
Sun 06:55:31 PM 41.7019 -86.7758 342° North 321 369 12,000  Level Chicago Center
Sun 06:56:33 PM 41.7853 -86.8089 344° North 316 364 12,000 -726 Level Chicago Center
Sun 06:57:35 PM 41.8672 -86.8444 342° North 313 360 10,500 -1,161 Descending Chicago Center
Sun 06:58:37 PM 41.9114 -86.9536 299° West 275 316 9,600 -774 Descending Chicago Center
Sun 06:59:39 PM 41.9428 -87.0367 297° West 256 295 8,900 -290 Descending Chicago Center
Sun 07:00:41 PM 41.9742 -87.1222 296° West 257 296 9,000 -581 Climbing Chicago Center
Sun 07:01:43 PM 41.9836 -87.2131 278° West 248 285 7,700 -1,008 Descending Chicago Center
Sun 07:02:46 PM 41.9822 -87.3003 269° West 238 274 6,900 -336 Descending Chicago Center
Sun 07:03:48 PM 41.9825 -87.3925 270° West 211 243 7,000 -48 Climbing Chicago Center
Sun 07:04:50 PM 41.9833 -87.4697 271° West 209 241 6,800 -581 Descending Chicago Center
Sun 07:05:52 PM 41.9833 -87.5389 270° West 190 219 5,800 -1,016 Descending Chicago Center
Sun 07:06:54 PM 41.9831 -87.6122 270° West 194 223 4,700 -1,125 Descending Chicago Center
Sun 07:07:44 PM 41.9833 -87.6833 270° West 189 217 3,700 -1,086 Descending Chicago TRACON
Sun 07:08:50 PM 41.9833 -87.7500 270° West 193 222 2,600 -992 Descending Chicago TRACON
Sun 07:09:51 PM 41.9833 -87.8167 270° West 149 171 1,600 -843 Descending Chicago TRACON
Sun 07:10:51 PM 41.9833 -87.8667 270° West 141 162 900 -700 Descending Chicago TRACON

Login

Don't have an account? Register now (free) for customized features, flight alerts, and more!